sensor_id;sensor_type;location;lat;lon;timestamp;P1;durP1;ratioP1;P2;durP2;ratioP2
50531;SDS011;36483;37.396;-122.212;2023-07-24T00:02:07;5.20;;;1.63;;
50531;SDS011;36483;37.396;-122.212;2023-07-24T00:04:33;3.35;;;1.50;;
50531;SDS011;36483;37.396;-122.212;2023-07-24T00:06:59;4.88;;;1.42;;
50531;SDS011;36483;37.396;-122.212;2023-07-24T00:09:26;3.72;;;1.27;;
50531;SDS011;36483;37.396;-122.212;2023-07-24T00:11:52;4.25;;;1.40;;
50531;SDS011;36483;37.396;-122.212;2023-07-24T00:14:18;3.95;;;1.45;;
50531;SDS011;36483;37.396;-122.212;2023-07-24T00:16:44;3.75;;;1.50;;
50531;SDS011;36483;37.396;-122.212;2023-07-24T00:19:10;4.00;;;1.40;;
50531;SDS011;36483;37.396;-122.212;2023-07-24T00:21:37;4.78;;;1.50;;
50531;SDS011;36483;37.396;-122.212;2023-07-24T00:24:03;5.75;;;1.67;;
50531;SDS011;36483;37.396;-122.212;2023-07-24T00:26:29;3.70;;;1.60;;
50531;SDS011;36483;37.396;-122.212;2023-07-24T00:28:55;3.70;;;1.58;;
50531;SDS011;36483;37.396;-122.212;2023-07-24T00:31:21;5.55;;;1.90;;
50531;SDS011;36483;37.396;-122.212;2023-07-24T00:33:47;3.53;;;1.50;;
50531;SDS011;36483;37.396;-122.212;2023-07-24T00:36:14;3.10;;;1.52;;
50531;SDS011;36483;37.396;-122.212;2023-07-24T00:38:40;3.38;;;1.63;;
50531;SDS011;36483;37.396;-122.212;2023-07-24T00:41:06;6.13;;;1.90;;
50531;SDS011;36483;37.396;-122.212;2023-07-24T00:43:32;5.88;;;1.92;;
50531;SDS011;36483;37.396;-122.212;2023-07-24T00:45:58;5.57;;;1.77;;
50531;SDS011;36483;37.396;-122.212;2023-07-24T00:48:24;4.93;;;1.70;;
50531;SDS011;36483;37.396;-122.212;2023-07-24T00:50:50;6.18;;;1.63;;
50531;SDS011;36483;37.396;-122.212;2023-07-24T00:53:17;6.30;;;1.60;;
50531;SDS011;36483;37.396;-122.212;2023-07-24T00:55:43;4.13;;;1.60;;
50531;SDS011;36483;37.396;-122.212;2023-07-24T00:58:10;5.00;;;1.80;;
50531;SDS011;36483;37.396;-122.212;2023-07-24T01:00:40;4.95;;;1.85;;
50531;SDS011;36483;37.396;-122.212;2023-07-24T01:03:06;5.18;;;2.05;;
50531;SDS011;36483;37.396;-122.212;2023-07-24T01:05:33;5.97;;;1.85;;
50531;SDS011;36483;37.396;-122.212;2023-07-24T01:07:59;6.45;;;2.03;;
50531;SDS011;36483;37.396;-122.212;2023-07-24T01:10:26;7.82;;;1.77;;
50531;SDS011;36483;37.396;-122.212;2023-07-24T01:12:59;7.07;;;2.10;;
50531;SDS011;36483;37.396;-122.212;2023-07-24T01:15:32;6.65;;;1.98;;
50531;SDS011;36483;37.396;-122.212;2023-07-24T01:18:07;4.80;;;1.80;;
50531;SDS011;36483;37.396;-122.212;2023-07-24T01:20:40;5.75;;;2.13;;
50531;SDS011;36483;37.396;-122.212;2023-07-24T01:26:00;7.15;;;2.25;;
50531;SDS011;36483;37.396;-122.212;2023-07-24T01:28:30;8.73;;;2.15;;
50531;SDS011;36483;37.396;-122.212;2023-07-24T01:30:56;4.68;;;1.90;;
50531;SDS011;36483;37.396;-122.212;2023-07-24T01:33:23;7.85;;;2.10;;
50531;SDS011;36483;37.396;-122.212;2023-07-24T01:35:53;6.30;;;2.30;;
50531;SDS011;36483;37.396;-122.212;2023-07-24T01:38:21;7.20;;;2.50;;
50531;SDS011;36483;37.396;-122.212;2023-07-24T01:40:51;7.03;;;2.50;;
50531;SDS011;36483;37.396;-122.212;2023-07-24T01:43:19;5.25;;;2.28;;
50531;SDS011;36483;37.396;-122.212;2023-07-24T01:45:45;5.28;;;2.10;;
50531;SDS011;36483;37.396;-122.212;2023-07-24T01:48:11;8.90;;;2.35;;
50531;SDS011;36483;37.396;-122.212;2023-07-24T01:50:37;6.45;;;2.13;;
50531;SDS011;36483;37.396;-122.212;2023-07-24T01:53:03;6.50;;;2.30;;
50531;SDS011;36483;37.396;-122.212;2023-07-24T01:55:29;7.22;;;2.22;;
50531;SDS011;36483;37.396;-122.212;2023-07-24T01:58:16;6.47;;;2.30;;
50531;SDS011;36483;37.396;-122.212;2023-07-24T02:00:44;7.85;;;2.45;;
50531;SDS011;36483;37.396;-122.212;2023-07-24T02:03:10;6.22;;;1.98;;
50531;SDS011;36483;37.396;-122.212;2023-07-24T02:05:36;6.53;;;2.40;;
50531;SDS011;36483;37.396;-122.212;2023-07-24T02:08:02;6.93;;;2.60;;
50531;SDS011;36483;37.396;-122.212;2023-07-24T02:10:28;6.57;;;2.55;;
50531;SDS011;36483;37.396;-122.212;2023-07-24T02:12:55;7.22;;;2.22;;
50531;SDS011;36483;37.396;-122.212;2023-07-24T02:15:22;7.90;;;2.33;;
50531;SDS011;36483;37.396;-122.212;2023-07-24T02:17:48;9.50;;;2.33;;
50531;SDS011;36483;37.396;-122.212;2023-07-24T02:20:16;6.60;;;2.38;;
50531;SDS011;36483;37.396;-122.212;2023-07-24T02:22:42;6.88;;;2.05;;
50531;SDS011;36483;37.396;-122.212;2023-07-24T02:25:10;8.82;;;3.03;;
50531;SDS011;36483;37.396;-122.212;2023-07-24T02:27:36;5.75;;;2.10;;
50531;SDS011;36483;37.396;-122.212;2023-07-24T02:30:02;7.57;;;2.50;;
50531;SDS011;36483;37.396;-122.212;2023-07-24T02:32:28;6.43;;;2.47;;
50531;SDS011;36483;37.396;-122.212;2023-07-24T02:34:55;7.07;;;2.60;;
50531;SDS011;36483;37.396;-122.212;2023-07-24T02:37:22;6.78;;;2.47;;
50531;SDS011;36483;37.396;-122.212;2023-07-24T02:39:48;5.97;;;2.30;;
50531;SDS011;36483;37.396;-122.212;2023-07-24T02:42:15;8.88;;;2.40;;
50531;SDS011;36483;37.396;-122.212;2023-07-24T02:44:45;8.10;;;2.50;;
50531;SDS011;36483;37.396;-122.212;2023-07-24T02:47:13;10.02;;;2.50;;
50531;SDS011;36483;37.396;-122.212;2023-07-24T02:49:41;6.70;;;2.45;;
50531;SDS011;36483;37.396;-122.212;2023-07-24T02:52:07;8.25;;;2.67;;
50531;SDS011;36483;37.396;-122.212;2023-07-24T02:54:34;9.05;;;2.88;;
50531;SDS011;36483;37.396;-122.212;2023-07-24T02:57:00;7.32;;;2.47;;
50531;SDS011;36483;37.396;-122.212;2023-07-24T02:59:28;5.32;;;2.30;;
50531;SDS011;36483;37.396;-122.212;2023-07-24T03:01:55;6.93;;;2.53;;
50531;SDS011;36483;37.396;-122.212;2023-07-24T03:04:21;6.50;;;2.55;;
50531;SDS011;36483;37.396;-122.212;2023-07-24T03:06:48;5.68;;;2.33;;
50531;SDS011;36483;37.396;-122.212;2023-07-24T03:09:15;6.70;;;2.60;;
50531;SDS011;36483;37.396;-122.212;2023-07-24T03:11:41;10.13;;;2.72;;
50531;SDS011;36483;37.396;-122.212;2023-07-24T03:14:08;6.90;;;2.80;;
50531;SDS011;36483;37.396;-122.212;2023-07-24T03:16:34;7.70;;;2.50;;
50531;SDS011;36483;37.396;-122.212;2023-07-24T03:19:00;6.60;;;2.50;;
50531;SDS011;36483;37.396;-122.212;2023-07-24T03:21:26;8.25;;;2.78;;
50531;SDS011;36483;37.396;-122.212;2023-07-24T03:23:53;7.35;;;2.40;;
50531;SDS011;36483;37.396;-122.212;2023-07-24T03:26:19;7.57;;;2.85;;
50531;SDS011;36483;37.396;-122.212;2023-07-24T03:28:45;8.25;;;2.80;;
50531;SDS011;36483;37.396;-122.212;2023-07-24T03:31:11;8.85;;;3.00;;
50531;SDS011;36483;37.396;-122.212;2023-07-24T03:33:39;11.80;;;2.75;;
50531;SDS011;36483;37.396;-122.212;2023-07-24T03:36:05;11.27;;;3.20;;
50531;SDS011;36483;37.396;-122.212;2023-07-24T03:38:31;11.15;;;3.00;;
50531;SDS011;36483;37.396;-122.212;2023-07-24T03:41:00;9.15;;;2.85;;
50531;SDS011;36483;37.396;-122.212;2023-07-24T03:43:27;8.30;;;3.05;;
50531;SDS011;36483;37.396;-122.212;2023-07-24T03:45:53;8.77;;;3.08;;
50531;SDS011;36483;37.396;-122.212;2023-07-24T03:48:19;9.73;;;2.78;;
50531;SDS011;36483;37.396;-122.212;2023-07-24T03:50:46;13.50;;;3.53;;
50531;SDS011;36483;37.396;-122.212;2023-07-24T03:53:12;11.13;;;3.58;;
50531;SDS011;36483;37.396;-122.212;2023-07-24T03:55:38;10.07;;;3.03;;
50531;SDS011;36483;37.396;-122.212;2023-07-24T03:58:05;7.30;;;2.80;;
50531;SDS011;36483;37.396;-122.212;2023-07-24T04:00:32;12.40;;;3.17;;
50531;SDS011;36483;37.396;-122.212;2023-07-24T04:02:58;9.57;;;3.40;;
50531;SDS011;36483;37.396;-122.212;2023-07-24T04:05:24;7.32;;;3.20;;
50531;SDS011;36483;37.396;-122.212;2023-07-24T04:07:54;5.80;;;2.90;;
50531;SDS011;36483;37.396;-122.212;2023-07-24T04:10:20;9.35;;;3.33;;
50531;SDS011;36483;37.396;-122.212;2023-07-24T04:12:48;8.02;;;3.08;;
50531;SDS011;36483;37.396;-122.212;2023-07-24T04:15:14;9.73;;;3.13;;
50531;SDS011;36483;37.396;-122.212;2023-07-24T04:17:40;11.00;;;3.33;;
50531;SDS011;36483;37.396;-122.212;2023-07-24T04:20:07;10.35;;;3.38;;
50531;SDS011;36483;37.396;-122.212;2023-07-24T04:22:33;13.02;;;3.63;;
50531;SDS011;36483;37.396;-122.212;2023-07-24T04:25:01;13.50;;;4.15;;
50531;SDS011;36483;37.396;-122.212;2023-07-24T04:27:33;11.45;;;3.25;;
50531;SDS011;36483;37.396;-122.212;2023-07-24T04:30:00;8.55;;;3.38;;
50531;SDS011;36483;37.396;-122.212;2023-07-24T04:32:26;12.70;;;4.40;;
50531;SDS011;36483;37.396;-122.212;2023-07-24T04:34:53;11.25;;;3.92;;
50531;SDS011;36483;37.396;-122.212;2023-07-24T04:37:19;13.15;;;3.72;;
50531;SDS011;36483;37.396;-122.212;2023-07-24T04:39:45;12.48;;;3.58;;
50531;SDS011;36483;37.396;-122.212;2023-07-24T04:42:11;13.68;;;4.10;;
50531;SDS011;36483;37.396;-122.212;2023-07-24T04:44:37;8.55;;;3.40;;
50531;SDS011;36483;37.396;-122.212;2023-07-24T04:47:03;10.50;;;3.72;;
50531;SDS011;36483;37.396;-122.212;2023-07-24T04:49:30;10.57;;;3.47;;
50531;SDS011;36483;37.396;-122.212;2023-07-24T04:51:58;10.77;;;3.88;;
50531;SDS011;36483;37.396;-122.212;2023-07-24T04:54:24;11.65;;;3.88;;
50531;SDS011;36483;37.396;-122.212;2023-07-24T04:56:50;13.32;;;3.90;;
50531;SDS011;36483;37.396;-122.212;2023-07-24T04:59:17;15.77;;;3.85;;
50531;SDS011;36483;37.396;-122.212;2023-07-24T05:01:43;11.02;;;3.58;;
50531;SDS011;36483;37.396;-122.212;2023-07-24T05:04:09;11.88;;;3.63;;
50531;SDS011;36483;37.396;-122.212;2023-07-24T05:06:35;14.77;;;4.20;;
50531;SDS011;36483;37.396;-122.212;2023-07-24T05:09:03;12.45;;;3.45;;
50531;SDS011;36483;37.396;-122.212;2023-07-24T05:11:30;14.20;;;3.75;;
50531;SDS011;36483;37.396;-122.212;2023-07-24T05:13:56;12.55;;;3.83;;
50531;SDS011;36483;37.396;-122.212;2023-07-24T05:16:22;12.52;;;3.67;;
50531;SDS011;36483;37.396;-122.212;2023-07-24T05:18:48;10.70;;;3.58;;
50531;SDS011;36483;37.396;-122.212;2023-07-24T05:21:14;12.05;;;3.78;;
50531;SDS011;36483;37.396;-122.212;2023-07-24T05:23:40;13.43;;;4.18;;
50531;SDS011;36483;37.396;-122.212;2023-07-24T05:26:06;12.85;;;4.10;;
50531;SDS011;36483;37.396;-122.212;2023-07-24T05:28:33;12.40;;;3.65;;
50531;SDS011;36483;37.396;-122.212;2023-07-24T05:31:00;11.45;;;3.95;;
50531;SDS011;36483;37.396;-122.212;2023-07-24T05:33:29;11.27;;;3.90;;
50531;SDS011;36483;37.396;-122.212;2023-07-24T05:36:00;12.32;;;3.90;;
50531;SDS011;36483;37.396;-122.212;2023-07-24T05:38:26;11.05;;;4.00;;
50531;SDS011;36483;37.396;-122.212;2023-07-24T05:40:56;11.45;;;3.45;;
50531;SDS011;36483;37.396;-122.212;2023-07-24T05:43:23;8.82;;;3.42;;
50531;SDS011;36483;37.396;-122.212;2023-07-24T05:45:53;8.63;;;3.55;;
50531;SDS011;36483;37.396;-122.212;2023-07-24T05:48:20;10.43;;;3.92;;
50531;SDS011;36483;37.396;-122.212;2023-07-24T05:50:46;10.32;;;3.78;;
50531;SDS011;36483;37.396;-122.212;2023-07-24T05:53:13;14.10;;;4.20;;
50531;SDS011;36483;37.396;-122.212;2023-07-24T05:55:40;11.52;;;4.10;;
50531;SDS011;36483;37.396;-122.212;2023-07-24T05:58:06;12.15;;;3.60;;
50531;SDS011;36483;37.396;-122.212;2023-07-24T06:00:32;11.48;;;4.00;;
50531;SDS011;36483;37.396;-122.212;2023-07-24T06:02:58;10.63;;;3.97;;
50531;SDS011;36483;37.396;-122.212;2023-07-24T06:05:24;13.70;;;3.90;;
50531;SDS011;36483;37.396;-122.212;2023-07-24T06:07:51;12.20;;;3.90;;
50531;SDS011;36483;37.396;-122.212;2023-07-24T06:10:17;11.75;;;4.07;;
50531;SDS011;36483;37.396;-122.212;2023-07-24T06:12:43;14.20;;;4.28;;
50531;SDS011;36483;37.396;-122.212;2023-07-24T06:15:09;15.23;;;4.20;;
50531;SDS011;36483;37.396;-122.212;2023-07-24T06:17:35;14.52;;;4.65;;
50531;SDS011;36483;37.396;-122.212;2023-07-24T06:20:01;13.65;;;4.47;;
50531;SDS011;36483;37.396;-122.212;2023-07-24T06:22:28;12.35;;;4.03;;
50531;SDS011;36483;37.396;-122.212;2023-07-24T06:24:54;11.18;;;3.70;;
50531;SDS011;36483;37.396;-122.212;2023-07-24T06:27:20;12.70;;;3.85;;
50531;SDS011;36483;37.396;-122.212;2023-07-24T06:29:46;11.88;;;4.18;;
50531;SDS011;36483;37.396;-122.212;2023-07-24T06:32:12;13.52;;;4.82;;
50531;SDS011;36483;37.396;-122.212;2023-07-24T06:34:38;14.98;;;4.75;;
50531;SDS011;36483;37.396;-122.212;2023-07-24T06:37:04;15.65;;;4.13;;
50531;SDS011;36483;37.396;-122.212;2023-07-24T06:39:30;14.80;;;4.35;;
50531;SDS011;36483;37.396;-122.212;2023-07-24T06:41:58;20.25;;;4.47;;
50531;SDS011;36483;37.396;-122.212;2023-07-24T06:44:24;10.23;;;4.05;;
50531;SDS011;36483;37.396;-122.212;2023-07-24T06:46:50;14.55;;;4.00;;
50531;SDS011;36483;37.396;-122.212;2023-07-24T06:49:17;14.25;;;4.18;;
50531;SDS011;36483;37.396;-122.212;2023-07-24T06:51:43;12.38;;;4.20;;
50531;SDS011;36483;37.396;-122.212;2023-07-24T06:54:09;14.30;;;4.68;;
50531;SDS011;36483;37.396;-122.212;2023-07-24T06:56:36;13.75;;;4.70;;
50531;SDS011;36483;37.396;-122.212;2023-07-24T06:59:02;14.00;;;4.15;;
50531;SDS011;36483;37.396;-122.212;2023-07-24T07:01:28;12.85;;;4.43;;
50531;SDS011;36483;37.396;-122.212;2023-07-24T07:03:54;14.93;;;4.80;;
50531;SDS011;36483;37.396;-122.212;2023-07-24T07:06:20;17.40;;;4.43;;
50531;SDS011;36483;37.396;-122.212;2023-07-24T07:08:46;14.15;;;4.55;;
50531;SDS011;36483;37.396;-122.212;2023-07-24T07:11:13;13.98;;;4.50;;
50531;SDS011;36483;37.396;-122.212;2023-07-24T07:13:39;14.30;;;4.35;;
50531;SDS011;36483;37.396;-122.212;2023-07-24T07:16:05;16.55;;;4.40;;
50531;SDS011;36483;37.396;-122.212;2023-07-24T07:18:31;14.60;;;4.00;;
50531;SDS011;36483;37.396;-122.212;2023-07-24T07:20:57;15.52;;;4.20;;
50531;SDS011;36483;37.396;-122.212;2023-07-24T07:23:23;13.30;;;4.35;;
50531;SDS011;36483;37.396;-122.212;2023-07-24T07:25:50;11.50;;;4.38;;
50531;SDS011;36483;37.396;-122.212;2023-07-24T07:28:17;13.13;;;4.40;;
50531;SDS011;36483;37.396;-122.212;2023-07-24T07:30:44;11.63;;;4.05;;
50531;SDS011;36483;37.396;-122.212;2023-07-24T07:33:10;12.50;;;4.95;;
50531;SDS011;36483;37.396;-122.212;2023-07-24T07:35:36;14.18;;;4.30;;
50531;SDS011;36483;37.396;-122.212;2023-07-24T07:38:03;11.23;;;3.58;;
50531;SDS011;36483;37.396;-122.212;2023-07-24T07:40:29;14.43;;;4.47;;
50531;SDS011;36483;37.396;-122.212;2023-07-24T07:42:55;11.02;;;4.43;;
50531;SDS011;36483;37.396;-122.212;2023-07-24T07:45:22;16.45;;;4.85;;
50531;SDS011;36483;37.396;-122.212;2023-07-24T07:47:49;15.30;;;5.07;;
50531;SDS011;36483;37.396;-122.212;2023-07-24T07:50:15;14.32;;;4.82;;
50531;SDS011;36483;37.396;-122.212;2023-07-24T07:52:41;15.55;;;4.63;;
50531;SDS011;36483;37.396;-122.212;2023-07-24T07:55:07;12.88;;;4.70;;
50531;SDS011;36483;37.396;-122.212;2023-07-24T07:57:34;12.30;;;4.65;;
50531;SDS011;36483;37.396;-122.212;2023-07-24T08:00:04;15.10;;;5.03;;
50531;SDS011;36483;37.396;-122.212;2023-07-24T08:02:33;14.27;;;4.75;;
50531;SDS011;36483;37.396;-122.212;2023-07-24T08:05:00;15.20;;;4.72;;
50531;SDS011;36483;37.396;-122.212;2023-07-24T08:07:26;12.07;;;4.75;;
50531;SDS011;36483;37.396;-122.212;2023-07-24T08:09:52;14.63;;;5.05;;
50531;SDS011;36483;37.396;-122.212;2023-07-24T08:12:18;15.48;;;4.88;;
50531;SDS011;36483;37.396;-122.212;2023-07-24T08:14:44;17.90;;;4.93;;
50531;SDS011;36483;37.396;-122.212;2023-07-24T08:17:10;11.82;;;4.63;;
50531;SDS011;36483;37.396;-122.212;2023-07-24T08:19:37;9.38;;;4.35;;
50531;SDS011;36483;37.396;-122.212;2023-07-24T08:22:03;15.35;;;4.88;;
50531;SDS011;36483;37.396;-122.212;2023-07-24T08:24:33;15.10;;;5.03;;
50531;SDS011;36483;37.396;-122.212;2023-07-24T08:27:00;17.85;;;5.15;;
50531;SDS011;36483;37.396;-122.212;2023-07-24T08:29:27;11.63;;;4.28;;
50531;SDS011;36483;37.396;-122.212;2023-07-24T08:31:53;16.52;;;4.63;;
50531;SDS011;36483;37.396;-122.212;2023-07-24T08:34:19;15.85;;;5.05;;
50531;SDS011;36483;37.396;-122.212;2023-07-24T08:36:45;13.70;;;4.38;;
50531;SDS011;36483;37.396;-122.212;2023-07-24T08:39:11;15.48;;;5.10;;
50531;SDS011;36483;37.396;-122.212;2023-07-24T08:41:37;12.50;;;4.63;;
50531;SDS011;36483;37.396;-122.212;2023-07-24T08:44:07;11.27;;;4.43;;
50531;SDS011;36483;37.396;-122.212;2023-07-24T08:46:37;15.88;;;4.90;;
50531;SDS011;36483;37.396;-122.212;2023-07-24T08:49:14;15.30;;;4.72;;
50531;SDS011;36483;37.396;-122.212;2023-07-24T08:51:41;13.73;;;4.30;;
50531;SDS011;36483;37.396;-122.212;2023-07-24T08:54:07;11.65;;;4.80;;
50531;SDS011;36483;37.396;-122.212;2023-07-24T08:56:34;14.40;;;4.38;;
50531;SDS011;36483;37.396;-122.212;2023-07-24T08:59:01;17.27;;;4.72;;
50531;SDS011;36483;37.396;-122.212;2023-07-24T09:01:27;11.75;;;4.50;;
50531;SDS011;36483;37.396;-122.212;2023-07-24T09:03:54;14.25;;;4.57;;
50531;SDS011;36483;37.396;-122.212;2023-07-24T09:06:20;12.88;;;5.00;;
50531;SDS011;36483;37.396;-122.212;2023-07-24T09:08:46;10.50;;;4.50;;
50531;SDS011;36483;37.396;-122.212;2023-07-24T09:11:13;13.93;;;5.15;;
50531;SDS011;36483;37.396;-122.212;2023-07-24T09:13:43;17.92;;;4.75;;
50531;SDS011;36483;37.396;-122.212;2023-07-24T09:16:20;8.35;;;3.88;;
50531;SDS011;36483;37.396;-122.212;2023-07-24T09:18:50;12.38;;;4.25;;
50531;SDS011;36483;37.396;-122.212;2023-07-24T09:21:26;18.20;;;4.55;;
50531;SDS011;36483;37.396;-122.212;2023-07-24T09:23:53;11.13;;;4.40;;
50531;SDS011;36483;37.396;-122.212;2023-07-24T09:26:20;18.23;;;5.13;;
50531;SDS011;36483;37.396;-122.212;2023-07-24T09:28:52;14.25;;;4.57;;
50531;SDS011;36483;37.396;-122.212;2023-07-24T09:31:19;17.00;;;4.75;;
50531;SDS011;36483;37.396;-122.212;2023-07-24T09:33:45;13.88;;;4.75;;
50531;SDS011;36483;37.396;-122.212;2023-07-24T09:36:12;14.65;;;5.05;;
50531;SDS011;36483;37.396;-122.212;2023-07-24T09:38:38;15.63;;;4.50;;
50531;SDS011;36483;37.396;-122.212;2023-07-24T09:41:06;12.90;;;4.70;;
50531;SDS011;36483;37.396;-122.212;2023-07-24T09:43:32;13.05;;;4.57;;
50531;SDS011;36483;37.396;-122.212;2023-07-24T09:46:00;11.00;;;4.63;;
50531;SDS011;36483;37.396;-122.212;2023-07-24T09:48:27;13.10;;;4.60;;
50531;SDS011;36483;37.396;-122.212;2023-07-24T09:50:54;14.00;;;4.60;;
50531;SDS011;36483;37.396;-122.212;2023-07-24T09:56:05;18.05;;;4.40;;
